Time;durP1;ratioP1;P1;durP2;ratioP2;P2;SDS_P1;SDS_P2;PMS_P1;PMS_P2;Temp;Humidity;BMP_temperature;BMP_pressure;BME280_temperature;BME280_humidity;BME280_pressure;Samples;Min_cycle;Max_cycle;Signal;HPM_P1;HPM_P2
2022/07/17 00:00:42;;;;;;;16.52;7.60;;;;;;;;;;5012894;28;20025;-62
2022/07/17 00:03:11;;;;;;;15.85;7.88;;;;;;;;;;5012856;28;20018;-63
2022/07/17 00:05:37;;;;;;;14.70;7.40;;;;;;;;;;5012982;28;20386;-63
2022/07/17 00:08:06;;;;;;;16.95;7.75;;;;;;;;;;5011243;28;20022;-63
2022/07/17 00:10:32;;;;;;;17.83;7.82;;;;;;;;;;5012954;28;20030;-62
2022/07/17 00:12:58;;;;;;;17.33;7.68;;;;;;;;;;5012861;28;20105;-59
2022/07/17 00:15:24;;;;;;;15.55;7.53;;;;;;;;;;5012801;28;20424;-63
2022/07/17 00:17:50;;;;;;;18.05;7.72;;;;;;;;;;5012321;28;20482;-64
2022/07/17 00:20:16;;;;;;;15.80;7.63;;;;;;;;;;5012821;28;20029;-64
2022/07/17 00:22:43;;;;;;;15.30;7.40;;;;;;;;;;5012631;28;20022;-62
2022/07/17 00:25:09;;;;;;;22.80;9.23;;;;;;;;;;5012873;28;20026;-63
2022/07/17 00:27:35;;;;;;;16.90;7.82;;;;;;;;;;5012252;28;20029;-61
2022/07/17 00:30:01;;;;;;;16.83;7.88;;;;;;;;;;5012440;28;20065;-63
2022/07/17 00:32:27;;;;;;;15.60;8.20;;;;;;;;;;5012366;28;20029;-63
2022/07/17 00:34:53;;;;;;;15.52;7.47;;;;;;;;;;5012752;28;20482;-63
2022/07/17 00:37:19;;;;;;;21.25;8.13;;;;;;;;;;5012220;28;20152;-63
2022/07/17 00:39:45;;;;;;;17.02;7.38;;;;;;;;;;5011155;28;20083;-63
2022/07/17 00:42:15;;;;;;;17.98;7.90;;;;;;;;;;5011174;28;20029;-63
2022/07/17 00:44:42;;;;;;;16.83;8.32;;;;;;;;;;5012164;28;20029;-63
2022/07/17 00:47:18;;;;;;;15.23;7.05;;;;;;;;;;5013293;28;20022;-58
2022/07/17 00:49:44;;;;;;;18.25;8.02;;;;;;;;;;5012615;28;20018;-62
2022/07/17 00:52:12;;;;;;;16.13;7.10;;;;;;;;;;5012239;28;20036;-63
2022/07/17 00:54:38;;;;;;;15.60;7.20;;;;;;;;;;5012053;28;20621;-63
2022/07/17 00:57:10;;;;;;;17.15;8.18;;;;;;;;;;5012349;28;20117;-64
2022/07/17 00:59:36;;;;;;;16.02;7.30;;;;;;;;;;5012238;28;20030;-63
2022/07/17 01:02:06;;;;;;;15.70;7.05;;;;;;;;;;5015888;28;20032;-63
2022/07/17 01:04:32;;;;;;;14.57;7.57;;;;;;;;;;5014933;28;20030;-63
2022/07/17 01:07:00;;;;;;;17.55;8.02;;;;;;;;;;5016262;28;20022;-62
2022/07/17 01:09:26;;;;;;;16.30;7.63;;;;;;;;;;5015908;28;20072;-63
2022/07/17 01:11:52;;;;;;;14.30;7.22;;;;;;;;;;5016196;28;20116;-63
2022/07/17 01:14:18;;;;;;;17.30;7.40;;;;;;;;;;5016338;28;20072;-63
2022/07/17 01:16:44;;;;;;;15.60;7.53;;;;;;;;;;5014736;28;20096;-61
2022/07/17 01:19:10;;;;;;;16.20;7.53;;;;;;;;;;5014496;28;20025;-63
2022/07/17 01:21:38;;;;;;;17.17;7.40;;;;;;;;;;5015807;28;20100;-62
2022/07/17 01:24:04;;;;;;;18.17;7.10;;;;;;;;;;5015709;28;20026;-61
2022/07/17 01:26:30;;;;;;;16.27;7.00;;;;;;;;;;5015818;28;20446;-64
2022/07/17 01:28:56;;;;;;;13.82;6.72;;;;;;;;;;5015326;28;20117;-63
2022/07/17 01:31:22;;;;;;;15.82;7.43;;;;;;;;;;5015927;28;20065;-63
2022/07/17 01:33:49;;;;;;;18.23;7.28;;;;;;;;;;5015973;28;20026;-63
2022/07/17 01:36:15;;;;;;;15.35;7.18;;;;;;;;;;5017467;28;20045;-63
2022/07/17 01:38:41;;;;;;;15.60;7.13;;;;;;;;;;5016490;28;20076;-63
2022/07/17 01:41:07;;;;;;;16.25;7.85;;;;;;;;;;5015322;28;20057;-63
2022/07/17 01:43:33;;;;;;;15.98;8.48;;;;;;;;;;5015978;28;20050;-63
2022/07/17 01:45:59;;;;;;;15.00;7.10;;;;;;;;;;5014341;28;20486;-62
2022/07/17 01:48:26;;;;;;;16.60;7.45;;;;;;;;;;5015382;28;20033;-64
2022/07/17 01:50:52;;;;;;;14.90;7.18;;;;;;;;;;5014282;28;20405;-64
2022/07/17 01:53:18;;;;;;;14.98;6.93;;;;;;;;;;5015434;28;20026;-64
2022/07/17 01:55:44;;;;;;;16.58;6.97;;;;;;;;;;5015449;28;20028;-63
2022/07/17 01:58:10;;;;;;;15.85;7.65;;;;;;;;;;5014955;28;20084;-65
2022/07/17 02:00:36;;;;;;;17.00;7.20;;;;;;;;;;5015343;28;20026;-64
2022/07/17 02:03:02;;;;;;;16.38;7.00;;;;;;;;;;5015392;28;20690;-63
2022/07/17 02:05:28;;;;;;;17.30;7.60;;;;;;;;;;5015477;28;20024;-63
2022/07/17 02:07:54;;;;;;;20.88;9.32;;;;;;;;;;5014916;28;20079;-62
2022/07/17 02:10:20;;;;;;;17.08;7.50;;;;;;;;;;5015131;28;20026;-62
2022/07/17 02:12:46;;;;;;;21.85;7.55;;;;;;;;;;5013896;28;20010;-63
2022/07/17 02:15:13;;;;;;;18.38;7.82;;;;;;;;;;5015073;28;20074;-62
2022/07/17 02:17:39;;;;;;;21.13;8.95;;;;;;;;;;5014593;28;20486;-64
2022/07/17 02:20:07;;;;;;;16.88;7.25;;;;;;;;;;5015104;28;20550;-64
2022/07/17 02:22:33;;;;;;;17.80;7.07;;;;;;;;;;5014823;28;20026;-64
2022/07/17 02:24:59;;;;;;;17.13;7.53;;;;;;;;;;5013444;28;20482;-63
2022/07/17 02:27:25;;;;;;;17.45;7.35;;;;;;;;;;5014381;28;20049;-64
2022/07/17 02:29:51;;;;;;;17.90;7.53;;;;;;;;;;5014849;28;20112;-64
2022/07/17 02:32:17;;;;;;;15.50;7.40;;;;;;;;;;5013603;28;20494;-62
2022/07/17 02:34:43;;;;;;;16.35;6.95;;;;;;;;;;5014693;28;20037;-61
2022/07/17 02:37:10;;;;;;;16.08;6.88;;;;;;;;;;5014589;28;20599;-61
2022/07/17 02:39:36;;;;;;;18.27;7.13;;;;;;;;;;5014370;28;20026;-63
2022/07/17 02:42:02;;;;;;;17.00;7.57;;;;;;;;;;5013132;28;20044;-64
2022/07/17 02:44:28;;;;;;;18.55;7.45;;;;;;;;;;5014448;28;20041;-63
2022/07/17 02:46:54;;;;;;;15.88;6.85;;;;;;;;;;5014352;28;20022;-64
2022/07/17 02:49:20;;;;;;;14.23;7.05;;;;;;;;;;5013993;28;20383;-63
2022/07/17 02:51:46;;;;;;;19.45;7.65;;;;;;;;;;5014222;28;20045;-63
2022/07/17 02:54:11;;;;;;;17.17;7.32;;;;;;;;;;5014443;28;20034;-63
2022/07/17 02:56:37;;;;;;;16.48;6.85;;;;;;;;;;5014216;28;20386;-65
2022/07/17 02:59:03;;;;;;;15.88;7.20;;;;;;;;;;5013952;28;20160;-64
2022/07/17 03:01:29;;;;;;;14.80;6.50;;;;;;;;;;5014023;28;20180;-64
2022/07/17 03:03:55;;;;;;;15.82;7.28;;;;;;;;;;5014184;28;20057;-64
2022/07/17 03:06:21;;;;;;;15.63;6.65;;;;;;;;;;5014071;28;20025;-63
2022/07/17 03:08:47;;;;;;;15.27;6.70;;;;;;;;;;5013725;28;20030;-63
2022/07/17 03:11:13;;;;;;;17.27;6.70;;;;;;;;;;5014144;28;20534;-60
2022/07/17 03:13:39;;;;;;;15.43;7.22;;;;;;;;;;5013972;28;20033;-63
2022/07/17 03:16:05;;;;;;;16.77;6.70;;;;;;;;;;5013999;28;20072;-63
2022/07/17 03:18:31;;;;;;;14.43;6.57;;;;;;;;;;5013457;28;20022;-63
2022/07/17 03:20:57;;;;;;;17.20;7.18;;;;;;;;;;5013713;28;20092;-64
2022/07/17 03:23:23;;;;;;;15.27;8.05;;;;;;;;;;5013234;28;20083;-63
2022/07/17 03:25:49;;;;;;;17.35;6.22;;;;;;;;;;5013790;28;20029;-64
2022/07/17 03:28:15;;;;;;;15.43;6.82;;;;;;;;;;5013266;28;20037;-62
2022/07/17 03:30:41;;;;;;;17.20;6.88;;;;;;;;;;5013590;28;20057;-63
2022/07/17 03:33:07;;;;;;;18.55;6.90;;;;;;;;;;5013548;28;20100;-63
2022/07/17 03:35:33;;;;;;;20.48;7.30;;;;;;;;;;5013595;28;20486;-63
2022/07/17 03:37:59;;;;;;;18.75;7.28;;;;;;;;;;5011920;28;20026;-63
2022/07/17 03:40:25;;;;;;;15.60;6.88;;;;;;;;;;5013473;28;20025;-63
2022/07/17 03:42:51;;;;;;;17.20;6.72;;;;;;;;;;5013481;28;20478;-63
2022/07/17 03:45:17;;;;;;;15.82;7.00;;;;;;;;;;5013321;28;20148;-63
2022/07/17 03:47:43;;;;;;;16.08;6.95;;;;;;;;;;5012852;28;20367;-63
2022/07/17 03:50:09;;;;;;;21.55;7.50;;;;;;;;;;5013217;28;20022;-64
2022/07/17 03:52:35;;;;;;;21.50;7.35;;;;;;;;;;5011625;28;20033;-63
2022/07/17 03:55:01;;;;;;;15.20;6.85;;;;;;;;;;5013119;28;20025;-62
2022/07/17 03:57:27;;;;;;;16.05;6.90;;;;;;;;;;5012824;28;20425;-64
2022/07/17 03:59:54;;;;;;;15.88;7.22;;;;;;;;;;5013074;28;20057;-63
2022/07/17 04:02:20;;;;;;;17.70;7.28;;;;;;;;;;5013127;28;20045;-64
2022/07/17 04:04:46;;;;;;;17.80;7.47;;;;;;;;;;5011796;28;20022;-62
2022/07/17 04:07:26;;;;;;;15.48;7.15;;;;;;;;;;5012500;28;20120;-62
2022/07/17 04:09:53;;;;;;;18.90;7.32;;;;;;;;;;5012823;28;20025;-63
2022/07/17 04:12:19;;;;;;;16.23;7.40;;;;;;;;;;5012755;28;20065;-62
2022/07/17 04:14:45;;;;;;;15.55;7.03;;;;;;;;;;5011564;28;20022;-63
2022/07/17 04:17:11;;;;;;;16.40;7.70;;;;;;;;;;5012450;28;20027;-64
2022/07/17 04:19:37;;;;;;;18.90;7.50;;;;;;;;;;5012591;28;20045;-63
2022/07/17 04:22:03;;;;;;;20.30;7.55;;;;;;;;;;5012735;28;20033;-64
2022/07/17 04:24:29;;;;;;;16.88;7.55;;;;;;;;;;5012616;28;20049;-63
2022/07/17 04:26:55;;;;;;;20.15;7.78;;;;;;;;;;5012591;28;20022;-64
2022/07/17 04:29:20;;;;;;;17.40;7.55;;;;;;;;;;5010987;28;20073;-63
2022/07/17 04:31:46;;;;;;;16.25;6.97;;;;;;;;;;5012621;28;20026;-64
2022/07/17 04:34:12;;;;;;;16.63;7.25;;;;;;;;;;5012313;28;20053;-63
2022/07/17 04:36:38;;;;;;;18.30;6.93;;;;;;;;;;5012053;28;20033;-61
2022/07/17 04:39:04;;;;;;;16.30;7.40;;;;;;;;;;5011977;28;20026;-62
2022/07/17 04:41:30;;;;;;;14.93;7.13;;;;;;;;;;5012468;28;20029;-63
2022/07/17 04:43:56;;;;;;;15.85;7.40;;;;;;;;;;5012398;28;20026;-62
2022/07/17 04:46:22;;;;;;;18.77;8.80;;;;;;;;;;5012211;28;20390;-63
2022/07/17 04:48:48;;;;;;;17.30;7.50;;;;;;;;;;5011906;28;20022;-63
2022/07/17 04:51:14;;;;;;;17.40;8.07;;;;;;;;;;5011315;28;20026;-62
2022/07/17 04:53:40;;;;;;;19.73;7.45;;;;;;;;;;5012349;28;20544;-63
2022/07/17 04:56:06;;;;;;;16.27;7.85;;;;;;;;;;5012315;28;20029;-62
2022/07/17 04:58:32;;;;;;;17.90;7.93;;;;;;;;;;5011903;28;20105;-64
2022/07/17 05:00:58;;;;;;;15.63;7.20;;;;;;;;;;5012483;28;20057;-63
2022/07/17 05:03:24;;;;;;;16.38;7.45;;;;;;;;;;5012179;28;20046;-63
2022/07/17 05:05:50;;;;;;;16.98;7.50;;;;;;;;;;5012174;28;20427;-63
2022/07/17 05:08:18;;;;;;;15.98;7.65;;;;;;;;;;5010498;28;20025;-61
2022/07/17 05:10:44;;;;;;;15.98;7.50;;;;;;;;;;5012134;28;20025;-62
2022/07/17 05:13:11;;;;;;;18.70;7.88;;;;;;;;;;5012374;28;20033;-62
2022/07/17 05:15:37;;;;;;;16.85;7.80;;;;;;;;;;5012094;28;20026;-63
2022/07/17 05:18:03;;;;;;;17.83;7.68;;;;;;;;;;5011693;28;20026;-63
2022/07/17 05:20:29;;;;;;;18.35;8.07;;;;;;;;;;5012239;28;20025;-63
2022/07/17 05:22:56;;;;;;;18.35;7.40;;;;;;;;;;5010712;28;20018;-61
2022/07/17 05:25:22;;;;;;;17.88;8.20;;;;;;;;;;5012279;28;20026;-61
2022/07/17 05:27:48;;;;;;;19.92;10.88;;;;;;;;;;5011605;28;20113;-63
2022/07/17 05:30:14;;;;;;;22.70;9.10;;;;;;;;;;5012037;28;20042;-63
2022/07/17 05:32:40;;;;;;;17.08;8.52;;;;;;;;;;5012119;28;20034;-63
2022/07/17 05:35:06;;;;;;;17.27;7.72;;;;;;;;;;5012086;28;20026;-63
2022/07/17 05:37:33;;;;;;;17.13;7.78;;;;;;;;;;5011825;28;20041;-63
2022/07/17 05:39:59;;;;;;;17.48;8.05;;;;;;;;;;5012017;28;20018;-63
2022/07/17 05:42:25;;;;;;;17.20;7.95;;;;;;;;;;5011729;28;20026;-63
2022/07/17 05:44:51;;;;;;;17.25;8.00;;;;;;;;;;5011837;28;20076;-62
2022/07/17 05:47:17;;;;;;;18.08;8.65;;;;;;;;;;5013812;28;20022;-62
2022/07/17 05:49:43;;;;;;;18.45;7.97;;;;;;;;;;5014344;28;20017;-62
2022/07/17 05:52:09;;;;;;;17.95;8.65;;;;;;;;;;5015533;28;20034;-62
2022/07/17 05:54:35;;;;;;;15.15;7.50;;;;;;;;;;5015347;28;20053;-63
2022/07/17 05:57:01;;;;;;;17.30;7.60;;;;;;;;;;5021551;28;20026;-63
2022/07/17 05:59:27;;;;;;;17.33;7.40;;;;;;;;;;5033304;28;20521;-63
2022/07/17 06:01:53;;;;;;;16.08;7.50;;;;;;;;;;5017308;28;20041;-63
2022/07/17 06:04:19;;;;;;;18.70;7.60;;;;;;;;;;5016686;28;20398;-62
2022/07/17 06:06:45;;;;;;;17.15;7.47;;;;;;;;;;5034815;28;20030;-62
2022/07/17 06:09:11;;;;;;;16.42;7.93;;;;;;;;;;5034746;28;20028;-63
2022/07/17 06:11:37;;;;;;;16.70;7.70;;;;;;;;;;5034945;28;20022;-60
2022/07/17 06:14:03;;;;;;;16.83;7.50;;;;;;;;;;5034919;28;20397;-62
2022/07/17 06:16:29;;;;;;;17.60;7.85;;;;;;;;;;5034796;28;20112;-62
2022/07/17 06:18:55;;;;;;;15.25;7.95;;;;;;;;;;5034577;28;20056;-62
2022/07/17 06:21:21;;;;;;;17.35;8.60;;;;;;;;;;5034566;28;20101;-61
2022/07/17 06:23:47;;;;;;;16.50;7.78;;;;;;;;;;5034693;28;20449;-60
2022/07/17 06:26:13;;;;;;;22.17;9.32;;;;;;;;;;5034754;28;20029;-62
2022/07/17 06:28:39;;;;;;;22.15;10.75;;;;;;;;;;5034270;28;20034;-62
2022/07/17 06:31:05;;;;;;;17.80;8.68;;;;;;;;;;5022585;28;20030;-62
2022/07/17 06:33:31;;;;;;;16.17;7.82;;;;;;;;;;5015144;28;20064;-62
2022/07/17 06:35:57;;;;;;;16.55;8.05;;;;;;;;;;5014848;28;20026;-63
2022/07/17 06:38:23;;;;;;;15.70;7.60;;;;;;;;;;5014619;28;20040;-62
2022/07/17 06:40:49;;;;;;;16.33;8.05;;;;;;;;;;5014631;28;20120;-63
2022/07/17 06:43:15;;;;;;;17.90;8.13;;;;;;;;;;5014727;28;20025;-62
2022/07/17 06:45:41;;;;;;;16.77;7.55;;;;;;;;;;5014871;28;20018;-62
2022/07/17 06:48:08;;;;;;;18.60;8.05;;;;;;;;;;5015360;28;20542;-63
2022/07/17 06:50:34;;;;;;;17.85;8.10;;;;;;;;;;5014371;28;20022;-62
2022/07/17 06:53:00;;;;;;;15.27;8.18;;;;;;;;;;5014894;28;20033;-63
2022/07/17 06:55:26;;;;;;;14.60;7.78;;;;;;;;;;5013403;28;20479;-62
2022/07/17 06:57:52;;;;;;;15.35;8.32;;;;;;;;;;5011793;28;20052;-63
2022/07/17 07:00:18;;;;;;;18.42;8.40;;;;;;;;;;5013230;28;20541;-63
2022/07/17 07:02:45;;;;;;;17.10;8.60;;;;;;;;;;5014619;28;20032;-62
2022/07/17 07:05:11;;;;;;;17.50;8.70;;;;;;;;;;5013168;28;20029;-63
2022/07/17 07:07:37;;;;;;;16.70;8.63;;;;;;;;;;5012739;28;20073;-62
2022/07/17 07:10:03;;;;;;;19.88;11.25;;;;;;;;;;5014097;28;20109;-63
2022/07/17 07:12:30;;;;;;;19.33;9.85;;;;;;;;;;5014180;28;20033;-60
2022/07/17 07:14:59;;;;;;;17.85;8.68;;;;;;;;;;5014346;28;20083;-63
2022/07/17 07:17:25;;;;;;;17.95;9.40;;;;;;;;;;5013760;28;20026;-62
2022/07/17 07:19:51;;;;;;;15.77;8.20;;;;;;;;;;5013981;28;20044;-63
2022/07/17 07:22:17;;;;;;;19.27;9.32;;;;;;;;;;5013910;28;20036;-63
2022/07/17 07:24:44;;;;;;;17.33;8.45;;;;;;;;;;5014080;28;20108;-62
2022/07/17 07:27:10;;;;;;;21.02;8.57;;;;;;;;;;5013662;28;20034;-55
2022/07/17 07:29:36;;;;;;;15.88;8.82;;;;;;;;;;5013988;28;20176;-63
2022/07/17 07:32:02;;;;;;;16.40;8.77;;;;;;;;;;5029860;28;20049;-62
2022/07/17 07:34:28;;;;;;;18.10;8.25;;;;;;;;;;5033641;28;20052;-63
2022/07/17 07:36:54;;;;;;;18.45;8.65;;;;;;;;;;5033564;28;20026;-63
2022/07/17 07:39:20;;;;;;;20.30;8.98;;;;;;;;;;5033216;28;20033;-64
2022/07/17 07:41:46;;;;;;;14.77;7.93;;;;;;;;;;5033042;28;20026;-63
2022/07/17 07:44:12;;;;;;;18.08;8.60;;;;;;;;;;5032735;28;20593;-62
2022/07/17 07:46:39;;;;;;;17.13;8.50;;;;;;;;;;5033534;28;20100;-60
2022/07/17 07:49:05;;;;;;;15.80;8.30;;;;;;;;;;5032746;28;20025;-62
2022/07/17 07:51:31;;;;;;;16.02;8.75;;;;;;;;;;5032972;28;20678;-62
2022/07/17 07:53:57;;;;;;;18.85;9.25;;;;;;;;;;5032891;28;20036;-62
2022/07/17 07:56:23;;;;;;;17.23;9.05;;;;;;;;;;5029670;28;20049;-63
2022/07/17 07:58:49;;;;;;;15.98;8.80;;;;;;;;;;5012252;28;20396;-62
2022/07/17 08:01:15;;;;;;;16.15;8.40;;;;;;;;;;5012947;28;20045;-63
2022/07/17 08:03:41;;;;;;;14.80;8.35;;;;;;;;;;5012940;28;20473;-63
2022/07/17 08:06:07;;;;;;;15.90;8.30;;;;;;;;;;5012915;28;20113;-63
2022/07/17 08:08:33;;;;;;;18.10;8.98;;;;;;;;;;5012501;28;20025;-62
2022/07/17 08:10:59;;;;;;;18.77;8.40;;;;;;;;;;5012505;28;20029;-62
2022/07/17 08:13:25;;;;;;;16.65;9.68;;;;;;;;;;5014942;28;20084;-63
2022/07/17 08:15:51;;;;;;;18.27;9.35;;;;;;;;;;5014447;28;20033;-59
2022/07/17 08:18:17;;;;;;;16.20;9.10;;;;;;;;;;5014357;28;20562;-62
2022/07/17 08:20:43;;;;;;;19.08;9.55;;;;;;;;;;5014656;28;20068;-63
2022/07/17 08:23:09;;;;;;;17.05;8.80;;;;;;;;;;5015481;28;20479;-62
2022/07/17 08:25:36;;;;;;;16.27;8.85;;;;;;;;;;5016491;28;20113;-63
2022/07/17 08:28:02;;;;;;;15.55;9.05;;;;;;;;;;5015945;28;20125;-62
2022/07/17 08:30:31;;;;;;;15.93;8.82;;;;;;;;;;5016981;28;20033;-62
2022/07/17 08:32:57;;;;;;;;;;;;;;;;;;5014820;28;20030;-58
2022/07/17 08:35:23;;;;;;;16.80;9.27;;;;;;;;;;5013011;28;19919;-61
2022/07/17 08:37:50;;;;;;;16.05;8.80;;;;;;;;;;5012336;28;20026;-60
2022/07/17 08:40:17;;;;;;;18.75;9.05;;;;;;;;;;5012435;28;20629;-60
2022/07/17 08:42:43;;;;;;;18.55;9.43;;;;;;;;;;5012625;28;20065;-60
2022/07/17 08:45:10;;;;;;;17.60;8.98;;;;;;;;;;5011271;28;20022;-59
2022/07/17 08:47:37;;;;;;;17.90;8.60;;;;;;;;;;5011724;28;20101;-59
2022/07/17 08:50:04;;;;;;;18.40;8.43;;;;;;;;;;5012336;28;20059;-56
2022/07/17 08:52:30;;;;;;;14.23;8.23;;;;;;;;;;5012407;28;20034;-61
2022/07/17 08:54:56;;;;;;;18.45;9.60;;;;;;;;;;5012290;28;20029;-59
2022/07/17 08:57:22;;;;;;;17.10;9.07;;;;;;;;;;5011846;28;20033;-60
2022/07/17 08:59:48;;;;;;;16.98;9.82;;;;;;;;;;5012050;28;20026;-59
2022/07/17 09:02:14;;;;;;;16.95;9.00;;;;;;;;;;5010846;28;20033;-60
2022/07/17 09:04:40;;;;;;;14.70;8.27;;;;;;;;;;5011855;28;20030;-60
2022/07/17 09:07:06;;;;;;;15.63;8.32;;;;;;;;;;5011816;28;20368;-59
2022/07/17 09:09:36;;;;;;;17.83;8.50;;;;;;;;;;5011287;28;20028;-59
2022/07/17 09:12:04;;;;;;;15.90;8.40;;;;;;;;;;5011691;28;20026;-60
2022/07/17 09:14:38;;;;;;;16.80;8.07;;;;;;;;;;5019210;28;20033;-59
2022/07/17 09:17:05;;;;;;;17.20;7.93;;;;;;;;;;5029989;28;20076;-54
2022/07/17 09:19:34;;;;;;;15.52;7.90;;;;;;;;;;5031179;28;20030;-59
2022/07/17 09:22:07;;;;;;;15.25;8.00;;;;;;;;;;5033276;28;20026;-60
2022/07/17 09:24:44;;;;;;;15.10;8.15;;;;;;;;;;5035733;28;20072;-60
2022/07/17 09:27:11;;;;;;;16.92;7.95;;;;;;;;;;5034842;28;20060;-57
2022/07/17 09:29:51;;;;;;;19.02;8.43;;;;;;;;;;5035503;28;20508;-59
2022/07/17 09:32:18;;;;;;;17.05;8.25;;;;;;;;;;5035351;28;20025;-59
2022/07/17 09:34:46;;;;;;;23.75;8.55;;;;;;;;;;5034924;28;20030;-57
2022/07/17 09:37:12;;;;;;;18.00;8.40;;;;;;;;;;5034785;28;20112;-61
2022/07/17 09:39:39;;;;;;;15.80;8.10;;;;;;;;;;5033547;28;20026;-61
2022/07/17 09:42:05;;;;;;;18.02;8.15;;;;;;;;;;5034600;28;20037;-60
2022/07/17 09:44:31;;;;;;;14.57;7.80;;;;;;;;;;5035226;28;20025;-60
2022/07/17 09:46:57;;;;;;;16.80;8.25;;;;;;;;;;5032572;28;20021;-60
2022/07/17 09:49:27;;;;;;;15.55;8.30;;;;;;;;;;5034575;28;20021;-62
2022/07/17 09:51:53;;;;;;;17.10;8.63;;;;;;;;;;5034956;28;20060;-62
2022/07/17 09:54:23;;;;;;;19.95;8.77;;;;;;;;;;5034932;28;20029;-62
2022/07/17 09:56:52;;;;;;;17.27;8.80;;;;;;;;;;5035167;28;20026;-59
2022/07/17 09:59:18;;;;;;;16.02;8.85;;;;;;;;;;5034683;28;20062;-61
2022/07/17 10:01:49;;;;;;;19.08;9.35;;;;;;;;;;5034814;28;20029;-61
2022/07/17 10:04:16;;;;;;;14.68;8.43;;;;;;;;;;5035030;28;20115;-62
2022/07/17 10:06:43;;;;;;;17.88;8.80;;;;;;;;;;5034564;28;20021;-61
2022/07/17 10:09:09;;;;;;;16.58;8.82;;;;;;;;;;5034740;28;20033;-62
2022/07/17 10:11:40;;;;;;;16.00;8.02;;;;;;;;;;5035151;28;20022;-61
2022/07/17 10:14:09;;;;;;;15.55;8.40;;;;;;;;;;5034848;28;20079;-61
2022/07/17 10:16:38;;;;;;;16.23;8.30;;;;;;;;;;5036633;28;20025;-60
2022/07/17 10:19:15;;;;;;;16.42;8.25;;;;;;;;;;5040854;28;20093;-60
2022/07/17 10:21:52;;;;;;;17.08;8.57;;;;;;;;;;5040037;28;20036;-61
2022/07/17 10:24:18;;;;;;;19.77;9.40;;;;;;;;;;5040896;28;20026;-61
2022/07/17 10:26:44;;;;;;;19.80;9.10;;;;;;;;;;5037967;28;20028;-60
2022/07/17 10:29:45;;;;;;;15.60;8.40;;;;;;;;;;5033946;28;20037;-60
2022/07/17 10:32:18;;;;;;;14.75;8.48;;;;;;;;;;5011622;28;20034;-61
2022/07/17 10:34:44;;;;;;;15.73;9.10;;;;;;;;;;5030191;28;20049;-61
2022/07/17 10:37:24;;;;;;;15.73;8.50;;;;;;;;;;5033774;28;20041;-58
2022/07/17 10:39:53;;;;;;;16.27;9.05;;;;;;;;;;5034109;28;20108;-61
2022/07/17 10:42:37;;;;;;;19.02;9.82;;;;;;;;;;5033937;28;20033;-60
2022/07/17 10:45:13;;;;;;;14.85;8.88;;;;;;;;;;5033736;28;20071;-60
2022/07/17 10:47:44;;;;;;;16.02;8.90;;;;;;;;;;5033643;28;20497;-60
2022/07/17 10:50:11;;;;;;;17.95;9.05;;;;;;;;;;5033800;28;20513;-62
2022/07/17 10:52:37;;;;;;;16.35;10.10;;;;;;;;;;5032655;28;20180;-60
2022/07/17 10:55:05;;;;;;;15.95;9.55;;;;;;;;;;5033874;28;20032;-60
2022/07/17 10:57:31;;;;;;;14.38;8.77;;;;;;;;;;5021751;28;20030;-60
2022/07/17 10:59:58;;;;;;;16.60;9.48;;;;;;;;;;5014198;28;20026;-56
2022/07/17 11:02:30;;;;;;;16.08;8.95;;;;;;;;;;5013545;28;20057;-60
2022/07/17 11:05:06;;;;;;;16.70;9.32;;;;;;;;;;5013757;28;20379;-61
2022/07/17 11:07:32;;;;;;;16.83;9.07;;;;;;;;;;5013652;28;20025;-60
2022/07/17 11:10:00;;;;;;;16.75;9.23;;;;;;;;;;5013979;28;20032;-61
2022/07/17 11:12:35;;;;;;;15.20;9.25;;;;;;;;;;5014108;28;20030;-61
2022/07/17 11:15:01;;;;;;;15.93;8.98;;;;;;;;;;5013576;28;20065;-60
2022/07/17 11:17:27;;;;;;;15.18;8.80;;;;;;;;;;5013612;28;20157;-59
2022/07/17 11:19:54;;;;;;;18.08;9.20;;;;;;;;;;5013961;28;20030;-61
2022/07/17 11:22:24;;;;;;;17.95;9.38;;;;;;;;;;5013747;28;20029;-60
2022/07/17 11:24:50;;;;;;;16.45;9.13;;;;;;;;;;5013908;28;20032;-61
2022/07/17 11:27:22;;;;;;;17.23;9.23;;;;;;;;;;5013229;28;20092;-61
2022/07/17 11:29:50;;;;;;;16.08;9.23;;;;;;;;;;4732707;28;10000666;-60
2022/07/17 11:32:16;;;;;;;14.85;9.05;;;;;;;;;;5020851;28;20277;-56
2022/07/17 11:34:42;;;;;;;20.45;14.13;;;;;;;;;;5015483;28;20033;-61
2022/07/17 11:37:09;;;;;;;16.27;9.70;;;;;;;;;;5030347;28;20584;-60
2022/07/17 11:39:42;;;;;;;14.50;9.27;;;;;;;;;;5020237;28;20505;-59
2022/07/17 11:42:09;;;;;;;16.27;9.18;;;;;;;;;;5008938;28;20034;-61
2022/07/17 11:44:35;;;;;;;14.40;8.90;;;;;;;;;;5010091;28;20026;-61
2022/07/17 11:47:02;;;;;;;18.05;8.85;;;;;;;;;;5011401;28;20037;-61
2022/07/17 11:49:28;;;;;;;16.98;9.70;;;;;;;;;;5028459;28;20022;-61
2022/07/17 11:51:56;;;;;;;16.50;10.27;;;;;;;;;;5029795;28;20029;-59
2022/07/17 11:54:22;;;;;;;16.52;9.98;;;;;;;;;;5029681;28;20025;-61
2022/07/17 11:56:53;;;;;;;16.25;9.25;;;;;;;;;;5023727;28;20026;-63
2022/07/17 11:59:27;;;;;;;15.98;9.80;;;;;;;;;;5009552;28;20030;-62
2022/07/17 12:01:53;;;;;;;15.45;9.65;;;;;;;;;;5009901;28;20026;-62
2022/07/17 12:04:20;;;;;;;16.13;10.27;;;;;;;;;;5013111;28;20170;-61
2022/07/17 12:06:47;;;;;;;15.50;9.23;;;;;;;;;;5028668;28;20037;-62
2022/07/17 12:09:13;;;;;;;16.23;9.70;;;;;;;;;;5028363;28;20494;-56
2022/07/17 12:11:47;;;;;;;15.75;9.77;;;;;;;;;;5029849;28;20029;-55
2022/07/17 12:14:13;;;;;;;14.85;9.60;;;;;;;;;;5029752;28;20374;-56
2022/07/17 12:16:39;;;;;;;16.15;10.18;;;;;;;;;;5029768;28;20133;-56
2022/07/17 12:19:05;;;;;;;16.98;9.82;;;;;;;;;;5029745;28;20506;-56
2022/07/17 12:21:32;;;;;;;16.88;10.43;;;;;;;;;;5029174;28;20045;-55
2022/07/17 12:23:59;;;;;;;;;;;;;;;;;;5030069;28;20046;-56
2022/07/17 12:26:25;;;;;;;15.68;10.40;;;;;;;;;;5029539;28;19955;-54
2022/07/17 12:28:51;;;;;;;14.90;10.02;;;;;;;;;;5028898;28;20043;-56
2022/07/17 12:31:17;;;;;;;16.48;10.07;;;;;;;;;;5028782;28;20428;-56
2022/07/17 12:33:43;;;;;;;16.40;10.65;;;;;;;;;;5029527;28;20029;-54
2022/07/17 12:36:09;;;;;;;17.98;10.38;;;;;;;;;;5028513;28;20116;-56
2022/07/17 12:38:35;;;;;;;15.90;10.52;;;;;;;;;;5025071;28;20029;-55
2022/07/17 12:41:01;;;;;;;15.45;10.18;;;;;;;;;;5009668;28;20470;-54
2022/07/17 12:43:27;;;;;;;14.77;9.80;;;;;;;;;;5009377;28;20030;-56
2022/07/17 12:45:54;;;;;;;15.65;10.60;;;;;;;;;;5010008;28;20069;-55
2022/07/17 12:48:20;;;;;;;16.45;10.20;;;;;;;;;;5011177;28;20026;-52
2022/07/17 12:50:46;;;;;;;15.52;10.00;;;;;;;;;;5011658;28;20462;-54
2022/07/17 12:53:13;;;;;;;16.90;10.30;;;;;;;;;;5012156;28;20029;-55
2022/07/17 12:55:39;;;;;;;16.45;10.30;;;;;;;;;;5011551;28;20033;-56
2022/07/17 12:58:05;;;;;;;16.35;10.45;;;;;;;;;;5010078;28;20072;-57
2022/07/17 13:00:31;;;;;;;15.98;10.60;;;;;;;;;;5012126;28;20052;-55
2022/07/17 13:02:57;;;;;;;18.05;10.57;;;;;;;;;;5011973;28;20026;-55
2022/07/17 13:05:23;;;;;;;17.05;10.80;;;;;;;;;;5011951;28;20029;-56
2022/07/17 13:07:50;;;;;;;17.50;10.35;;;;;;;;;;5011803;28;20033;-55
2022/07/17 13:10:16;;;;;;;15.32;10.68;;;;;;;;;;5011882;28;20041;-54
2022/07/17 13:12:42;;;;;;;15.60;10.05;;;;;;;;;;5011701;28;20115;-53
2022/07/17 13:15:09;;;;;;;16.65;10.18;;;;;;;;;;5011917;28;20483;-57
2022/07/17 13:17:36;;;;;;;15.95;9.80;;;;;;;;;;5012263;28;20032;-56
2022/07/17 13:20:02;;;;;;;15.73;10.57;;;;;;;;;;5019047;28;20056;-55
2022/07/17 13:22:28;;;;;;;14.70;9.52;;;;;;;;;;5030055;28;20116;-52
2022/07/17 13:24:54;;;;;;;15.48;9.85;;;;;;;;;;5031686;28;20108;-53
2022/07/17 13:27:20;;;;;;;14.93;10.18;;;;;;;;;;5031385;28;20022;-52
2022/07/17 13:29:46;;;;;;;15.43;9.85;;;;;;;;;;5031670;28;20101;-53
2022/07/17 13:32:12;;;;;;;16.15;10.55;;;;;;;;;;5030982;28;20489;-57
2022/07/17 13:34:38;;;;;;;16.27;9.80;;;;;;;;;;5031427;28;20552;-57
2022/07/17 13:37:05;;;;;;;15.38;9.90;;;;;;;;;;5031704;28;20022;-56
2022/07/17 13:39:31;;;;;;;16.27;10.70;;;;;;;;;;5031479;28;20045;-63
2022/07/17 13:41:57;;;;;;;16.08;10.68;;;;;;;;;;5017451;28;20030;-53
2022/07/17 13:44:23;;;;;;;15.52;10.13;;;;;;;;;;5011706;28;20026;-57
2022/07/17 13:46:49;;;;;;;15.98;10.52;;;;;;;;;;5011609;28;20026;-57
2022/07/17 13:49:15;;;;;;;16.55;10.40;;;;;;;;;;4680046;28;9999764;-57
2022/07/17 13:51:41;;;;;;;15.32;9.95;;;;;;;;;;5028242;28;20107;-57
2022/07/17 13:54:07;;;;;;;16.17;11.07;;;;;;;;;;5028221;28;20029;-57
2022/07/17 13:56:34;;;;;;;16.42;11.00;;;;;;;;;;5028163;28;20053;-56
2022/07/17 13:59:00;;;;;;;15.23;10.88;;;;;;;;;;5027947;28;20091;-52
2022/07/17 14:01:27;;;;;;;17.40;11.13;;;;;;;;;;4680108;28;10000116;-60
2022/07/17 14:03:53;;;;;;;16.85;10.70;;;;;;;;;;5028541;28;20036;-58
2022/07/17 14:06:19;;;;;;;15.70;10.45;;;;;;;;;;5028866;28;20022;-59
2022/07/17 14:08:46;;;;;;;16.67;10.20;;;;;;;;;;5030992;28;20052;-54
2022/07/17 14:11:12;;;;;;;16.25;10.90;;;;;;;;;;5031822;28;20044;-53
2022/07/17 14:13:38;;;;;;;14.73;10.70;;;;;;;;;;5031630;28;20033;-53
2022/07/17 14:16:04;;;;;;;15.40;10.85;;;;;;;;;;5031528;28;20547;-52
2022/07/17 14:18:30;;;;;;;15.18;10.40;;;;;;;;;;5031362;28;20109;-54
2022/07/17 14:20:56;;;;;;;15.75;10.70;;;;;;;;;;5031473;28;20056;-55
2022/07/17 14:23:22;;;;;;;15.88;10.70;;;;;;;;;;5031693;28;20112;-55
2022/07/17 14:25:48;;;;;;;16.55;10.50;;;;;;;;;;5031795;28;20121;-52